sensor_id;sensor_type;location;lat;lon;timestamp;temperature;humidity
16172;DHT22;8192;53.596;10.166;2022-11-20T00:01:36;1.50;99.90
16172;DHT22;8192;53.596;10.166;2022-11-20T00:04:05;1.50;99.90
16172;DHT22;8192;53.596;10.166;2022-11-20T00:06:37;1.40;99.90
16172;DHT22;8192;53.596;10.166;2022-11-20T00:09:08;1.40;99.90
16172;DHT22;8192;53.596;10.166;2022-11-20T00:11:39;1.30;99.90
16172;DHT22;8192;53.596;10.166;2022-11-20T00:14:12;1.30;99.90
16172;DHT22;8192;53.596;10.166;2022-11-20T00:20:01;1.40;99.90
16172;DHT22;8192;53.596;10.166;2022-11-20T00:22:30;1.40;99.90
16172;DHT22;8192;53.596;10.166;2022-11-20T00:24:57;1.40;99.90
16172;DHT22;8192;53.596;10.166;2022-11-20T00:27:25;1.30;99.90
16172;DHT22;8192;53.596;10.166;2022-11-20T00:29:52;1.40;99.90
16172;DHT22;8192;53.596;10.166;2022-11-20T00:32:21;1.50;99.90
16172;DHT22;8192;53.596;10.166;2022-11-20T00:34:52;1.30;99.90
16172;DHT22;8192;53.596;10.166;2022-11-20T00:37:25;1.50;99.90
16172;DHT22;8192;53.596;10.166;2022-11-20T00:39:53;1.40;99.90
16172;DHT22;8192;53.596;10.166;2022-11-20T00:45:43;1.40;99.90
16172;DHT22;8192;53.596;10.166;2022-11-20T00:48:11;1.50;99.90
16172;DHT22;8192;53.596;10.166;2022-11-20T00:57:09;1.40;99.90
16172;DHT22;8192;53.596;10.166;2022-11-20T00:59:37;1.40;99.90
16172;DHT22;8192;53.596;10.166;2022-11-20T01:02:05;1.40;99.90
16172;DHT22;8192;53.596;10.166;2022-11-20T01:04:32;1.30;99.90
16172;DHT22;8192;53.596;10.166;2022-11-20T01:10:22;1.20;99.90
16172;DHT22;8192;53.596;10.166;2022-11-20T01:12:51;1.20;99.90
16172;DHT22;8192;53.596;10.166;2022-11-20T01:15:39;1.20;99.90
16172;DHT22;8192;53.596;10.166;2022-11-20T01:18:07;1.40;99.90
16172;DHT22;8192;53.596;10.166;2022-11-20T01:20:35;1.60;99.90
16172;DHT22;8192;53.596;10.166;2022-11-20T01:23:03;1.20;99.90
16172;DHT22;8192;53.596;10.166;2022-11-20T01:25:31;1.40;99.90
16172;DHT22;8192;53.596;10.166;2022-11-20T01:30:51;1.20;99.90
16172;DHT22;8192;53.596;10.166;2022-11-20T01:33:21;1.40;99.90
16172;DHT22;8192;53.596;10.166;2022-11-20T01:52:21;1.30;99.90
16172;DHT22;8192;53.596;10.166;2022-11-20T01:54:53;1.20;99.90
16172;DHT22;8192;53.596;10.166;2022-11-20T01:57:25;1.30;99.90
16172;DHT22;8192;53.596;10.166;2022-11-20T01:59:58;1.20;99.90
16172;DHT22;8192;53.596;10.166;2022-11-20T02:02:50;1.20;99.90
16172;DHT22;8192;53.596;10.166;2022-11-20T02:12:29;1.20;99.90
16172;DHT22;8192;53.596;10.166;2022-11-20T02:15:14;1.20;99.90
16172;DHT22;8192;53.596;10.166;2022-11-20T02:17:42;1.10;99.90
16172;DHT22;8192;53.596;10.166;2022-11-20T02:20:11;1.20;99.90
16172;DHT22;8192;53.596;10.166;2022-11-20T02:22:45;1.20;99.90
16172;DHT22;8192;53.596;10.166;2022-11-20T02:25:19;1.20;99.90
16172;DHT22;8192;53.596;10.166;2022-11-20T02:27:49;1.40;99.90
16172;DHT22;8192;53.596;10.166;2022-11-20T02:30:17;1.10;99.90
16172;DHT22;8192;53.596;10.166;2022-11-20T02:32:46;1.10;99.90
16172;DHT22;8192;53.596;10.166;2022-11-20T02:35:44;1.10;99.90
16172;DHT22;8192;53.596;10.166;2022-11-20T02:38:14;1.00;99.90
16172;DHT22;8192;53.596;10.166;2022-11-20T02:40:44;1.10;99.90
16172;DHT22;8192;53.596;10.166;2022-11-20T02:43:12;1.00;99.90
16172;DHT22;8192;53.596;10.166;2022-11-20T02:45:40;1.20;99.90
16172;DHT22;8192;53.596;10.166;2022-11-20T02:48:09;1.20;99.90
16172;DHT22;8192;53.596;10.166;2022-11-20T02:50:37;1.00;99.90
16172;DHT22;8192;53.596;10.166;2022-11-20T02:53:06;0.80;99.90
16172;DHT22;8192;53.596;10.166;2022-11-20T02:55:34;1.00;99.90
16172;DHT22;8192;53.596;10.166;2022-11-20T02:58:09;1.00;99.90
16172;DHT22;8192;53.596;10.166;2022-11-20T03:00:36;0.90;99.90
16172;DHT22;8192;53.596;10.166;2022-11-20T03:06:27;0.90;99.90
16172;DHT22;8192;53.596;10.166;2022-11-20T03:08:55;0.90;99.90
16172;DHT22;8192;53.596;10.166;2022-11-20T03:11:23;0.70;99.90
16172;DHT22;8192;53.596;10.166;2022-11-20T03:13:53;0.90;99.90
16172;DHT22;8192;53.596;10.166;2022-11-20T03:16:22;1.30;99.90
16172;DHT22;8192;53.596;10.166;2022-11-20T03:18:52;0.80;99.90
16172;DHT22;8192;53.596;10.166;2022-11-20T03:21:19;0.90;99.90
16172;DHT22;8192;53.596;10.166;2022-11-20T03:26:25;0.90;99.90
16172;DHT22;8192;53.596;10.166;2022-11-20T03:28:56;1.20;99.90
16172;DHT22;8192;53.596;10.166;2022-11-20T03:31:25;0.80;99.90
16172;DHT22;8192;53.596;10.166;2022-11-20T03:33:55;1.00;99.90
16172;DHT22;8192;53.596;10.166;2022-11-20T03:36:23;0.90;99.90
16172;DHT22;8192;53.596;10.166;2022-11-20T03:38:53;0.90;99.90
16172;DHT22;8192;53.596;10.166;2022-11-20T03:41:24;1.00;99.90
16172;DHT22;8192;53.596;10.166;2022-11-20T03:43:56;1.10;99.90
16172;DHT22;8192;53.596;10.166;2022-11-20T03:52:52;1.00;99.90
16172;DHT22;8192;53.596;10.166;2022-11-20T03:55:20;1.00;99.90
16172;DHT22;8192;53.596;10.166;2022-11-20T03:58:04;1.00;99.90
16172;DHT22;8192;53.596;10.166;2022-11-20T04:00:33;1.00;99.90
16172;DHT22;8192;53.596;10.166;2022-11-20T04:03:00;1.00;99.90
16172;DHT22;8192;53.596;10.166;2022-11-20T04:05:32;1.10;99.90
16172;DHT22;8192;53.596;10.166;2022-11-20T04:08:00;1.00;99.90
16172;DHT22;8192;53.596;10.166;2022-11-20T04:10:27;1.00;99.90
16172;DHT22;8192;53.596;10.166;2022-11-20T04:12:54;1.00;99.90
16172;DHT22;8192;53.596;10.166;2022-11-20T04:15:21;1.00;99.90
16172;DHT22;8192;53.596;10.166;2022-11-20T04:17:51;1.00;99.90
16172;DHT22;8192;53.596;10.166;2022-11-20T04:50:42;0.90;99.90
16172;DHT22;8192;53.596;10.166;2022-11-20T04:53:16;1.00;99.90
16172;DHT22;8192;53.596;10.166;2022-11-20T04:55:43;1.00;99.90
16172;DHT22;8192;53.596;10.166;2022-11-20T04:58:11;1.00;99.90
16172;DHT22;8192;53.596;10.166;2022-11-20T05:00:39;1.00;99.90
16172;DHT22;8192;53.596;10.166;2022-11-20T05:03:07;1.10;99.90
16172;DHT22;8192;53.596;10.166;2022-11-20T05:05:34;0.70;99.90
16172;DHT22;8192;53.596;10.166;2022-11-20T05:08:04;0.80;99.90
16172;DHT22;8192;53.596;10.166;2022-11-20T05:10:31;1.00;99.90
16172;DHT22;8192;53.596;10.166;2022-11-20T05:26:23;1.00;99.90
16172;DHT22;8192;53.596;10.166;2022-11-20T05:28:51;0.90;99.90
16172;DHT22;8192;53.596;10.166;2022-11-20T05:31:21;0.80;99.90
16172;DHT22;8192;53.596;10.166;2022-11-20T05:33:48;0.90;99.90
16172;DHT22;8192;53.596;10.166;2022-11-20T05:36:16;0.60;99.90
16172;DHT22;8192;53.596;10.166;2022-11-20T05:38:44;0.70;99.90
16172;DHT22;8192;53.596;10.166;2022-11-20T05:41:14;0.80;99.90
16172;DHT22;8192;53.596;10.166;2022-11-20T05:43:44;0.70;99.90
16172;DHT22;8192;53.596;10.166;2022-11-20T05:52:28;0.70;99.90
16172;DHT22;8192;53.596;10.166;2022-11-20T05:54:56;0.70;99.90
16172;DHT22;8192;53.596;10.166;2022-11-20T05:57:23;0.60;99.90
16172;DHT22;8192;53.596;10.166;2022-11-20T05:59:52;0.80;99.90
16172;DHT22;8192;53.596;10.166;2022-11-20T06:02:20;0.70;99.90
16172;DHT22;8192;53.596;10.166;2022-11-20T06:04:47;0.80;99.90
16172;DHT22;8192;53.596;10.166;2022-11-20T06:07:14;1.00;99.90
16172;DHT22;8192;53.596;10.166;2022-11-20T06:09:41;0.70;99.90
16172;DHT22;8192;53.596;10.166;2022-11-20T06:12:08;0.90;99.90
16172;DHT22;8192;53.596;10.166;2022-11-20T06:21:40;0.70;99.90
16172;DHT22;8192;53.596;10.166;2022-11-20T06:25:04;0.70;99.90
16172;DHT22;8192;53.596;10.166;2022-11-20T06:31:01;0.70;99.90
16172;DHT22;8192;53.596;10.166;2022-11-20T06:33:28;0.70;99.90
16172;DHT22;8192;53.596;10.166;2022-11-20T06:35:56;1.00;99.90
16172;DHT22;8192;53.596;10.166;2022-11-20T06:38:26;0.70;99.90
16172;DHT22;8192;53.596;10.166;2022-11-20T06:44:16;0.70;99.90
16172;DHT22;8192;53.596;10.166;2022-11-20T06:46:43;0.70;99.90
16172;DHT22;8192;53.596;10.166;2022-11-20T06:49:11;0.60;99.90
16172;DHT22;8192;53.596;10.166;2022-11-20T06:51:38;0.70;99.90
16172;DHT22;8192;53.596;10.166;2022-11-20T06:54:07;0.70;99.90
16172;DHT22;8192;53.596;10.166;2022-11-20T06:56:34;0.60;99.90
16172;DHT22;8192;53.596;10.166;2022-11-20T06:59:04;0.60;99.90
16172;DHT22;8192;53.596;10.166;2022-11-20T07:01:31;0.60;99.90
16172;DHT22;8192;53.596;10.166;2022-11-20T07:03:58;0.50;99.90
16172;DHT22;8192;53.596;10.166;2022-11-20T07:06:25;0.50;99.90
16172;DHT22;8192;53.596;10.166;2022-11-20T07:08:53;0.60;99.90
16172;DHT22;8192;53.596;10.166;2022-11-20T07:11:21;0.70;99.90
16172;DHT22;8192;53.596;10.166;2022-11-20T07:13:49;0.70;99.90
16172;DHT22;8192;53.596;10.166;2022-11-20T07:16:16;0.70;99.90
16172;DHT22;8192;53.596;10.166;2022-11-20T07:18:43;0.70;99.90
16172;DHT22;8192;53.596;10.166;2022-11-20T07:21:17;0.70;99.90
16172;DHT22;8192;53.596;10.166;2022-11-20T07:23:44;0.70;99.90
16172;DHT22;8192;53.596;10.166;2022-11-20T07:26:11;0.80;99.90
16172;DHT22;8192;53.596;10.166;2022-11-20T07:28:40;0.80;99.90
16172;DHT22;8192;53.596;10.166;2022-11-20T07:31:07;0.70;99.90
16172;DHT22;8192;53.596;10.166;2022-11-20T07:33:34;0.60;99.90
16172;DHT22;8192;53.596;10.166;2022-11-20T07:36:01;0.80;99.90
16172;DHT22;8192;53.596;10.166;2022-11-20T07:38:29;0.80;99.90
16172;DHT22;8192;53.596;10.166;2022-11-20T07:44:06;0.80;99.90
16172;DHT22;8192;53.596;10.166;2022-11-20T07:46:33;0.80;99.90
16172;DHT22;8192;53.596;10.166;2022-11-20T07:49:00;0.70;99.90
16172;DHT22;8192;53.596;10.166;2022-11-20T07:51:27;0.80;99.90
16172;DHT22;8192;53.596;10.166;2022-11-20T07:53:54;0.80;99.90
16172;DHT22;8192;53.596;10.166;2022-11-20T07:56:21;0.80;99.90
16172;DHT22;8192;53.596;10.166;2022-11-20T08:02:12;0.90;99.90
16172;DHT22;8192;53.596;10.166;2022-11-20T08:04:40;0.90;99.90
16172;DHT22;8192;53.596;10.166;2022-11-20T08:07:07;1.00;99.90
16172;DHT22;8192;53.596;10.166;2022-11-20T08:09:34;1.00;99.90
16172;DHT22;8192;53.596;10.166;2022-11-20T08:15:23;1.10;99.90
16172;DHT22;8192;53.596;10.166;2022-11-20T08:17:58;1.20;99.90
16172;DHT22;8192;53.596;10.166;2022-11-20T08:20:25;1.20;99.90
16172;DHT22;8192;53.596;10.166;2022-11-20T08:22:52;1.20;99.90
16172;DHT22;8192;53.596;10.166;2022-11-20T08:25:19;1.20;99.90
16172;DHT22;8192;53.596;10.166;2022-11-20T08:27:46;1.20;99.90
16172;DHT22;8192;53.596;10.166;2022-11-20T08:30:45;1.20;99.90
16172;DHT22;8192;53.596;10.166;2022-11-20T08:40:12;1.40;99.90
16172;DHT22;8192;53.596;10.166;2022-11-20T08:46:24;1.20;99.90
16172;DHT22;8192;53.596;10.166;2022-11-20T08:52:13;1.20;99.90
16172;DHT22;8192;53.596;10.166;2022-11-20T08:54:41;1.30;99.90
16172;DHT22;8192;53.596;10.166;2022-11-20T09:00:32;1.20;99.90
16172;DHT22;8192;53.596;10.166;2022-11-20T09:02:59;1.20;99.90
16172;DHT22;8192;53.596;10.166;2022-11-20T09:05:27;1.30;99.90
16172;DHT22;8192;53.596;10.166;2022-11-20T09:07:56;1.30;99.90
16172;DHT22;8192;53.596;10.166;2022-11-20T09:10:23;1.30;99.90
16172;DHT22;8192;53.596;10.166;2022-11-20T09:16:26;1.30;99.90
16172;DHT22;8192;53.596;10.166;2022-11-20T09:19:07;1.40;99.90
16172;DHT22;8192;53.596;10.166;2022-11-20T09:21:34;1.40;99.90
16172;DHT22;8192;53.596;10.166;2022-11-20T09:27:23;1.50;99.90
16172;DHT22;8192;53.596;10.166;2022-11-20T09:29:50;1.50;99.90
16172;DHT22;8192;53.596;10.166;2022-11-20T09:35:41;1.60;99.90
16172;DHT22;8192;53.596;10.166;2022-11-20T09:38:09;1.70;99.90
16172;DHT22;8192;53.596;10.166;2022-11-20T09:40:40;1.80;99.90
16172;DHT22;8192;53.596;10.166;2022-11-20T09:46:38;1.70;99.90
16172;DHT22;8192;53.596;10.166;2022-11-20T09:49:20;1.80;99.90
16172;DHT22;8192;53.596;10.166;2022-11-20T09:51:57;1.70;99.90
16172;DHT22;8192;53.596;10.166;2022-11-20T09:54:29;1.60;99.90
16172;DHT22;8192;53.596;10.166;2022-11-20T09:57:08;1.80;99.90
16172;DHT22;8192;53.596;10.166;2022-11-20T09:59:40;1.90;99.90
16172;DHT22;8192;53.596;10.166;2022-11-20T10:02:29;1.70;99.90
16172;DHT22;8192;53.596;10.166;2022-11-20T10:05:01;1.80;99.90
16172;DHT22;8192;53.596;10.166;2022-11-20T10:10:42;1.60;99.90
16172;DHT22;8192;53.596;10.166;2022-11-20T10:13:20;1.70;99.90
16172;DHT22;8192;53.596;10.166;2022-11-20T10:15:59;1.90;99.90
16172;DHT22;8192;53.596;10.166;2022-11-20T10:18:40;1.90;99.90
16172;DHT22;8192;53.596;10.166;2022-11-20T10:21:17;1.90;99.90
16172;DHT22;8192;53.596;10.166;2022-11-20T10:24:02;1.80;99.90
16172;DHT22;8192;53.596;10.166;2022-11-20T10:26:39;1.80;99.90
16172;DHT22;8192;53.596;10.166;2022-11-20T10:29:13;1.90;99.90
16172;DHT22;8192;53.596;10.166;2022-11-20T10:31:43;2.10;99.90
16172;DHT22;8192;53.596;10.166;2022-11-20T10:34:23;2.20;99.90
16172;DHT22;8192;53.596;10.166;2022-11-20T10:36:55;2.10;99.90
16172;DHT22;8192;53.596;10.166;2022-11-20T10:39:29;1.90;99.90
16172;DHT22;8192;53.596;10.166;2022-11-20T10:42:00;2.00;99.90
16172;DHT22;8192;53.596;10.166;2022-11-20T10:44:28;2.00;99.90
16172;DHT22;8192;53.596;10.166;2022-11-20T10:47:21;2.00;99.90
16172;DHT22;8192;53.596;10.166;2022-11-20T10:49:50;2.30;99.90
16172;DHT22;8192;53.596;10.166;2022-11-20T10:52:23;2.40;99.90
16172;DHT22;8192;53.596;10.166;2022-11-20T10:54:59;2.20;99.90
16172;DHT22;8192;53.596;10.166;2022-11-20T10:57:46;2.10;99.90
16172;DHT22;8192;53.596;10.166;2022-11-20T11:00:16;2.10;99.90
16172;DHT22;8192;53.596;10.166;2022-11-20T11:02:47;2.20;99.90
16172;DHT22;8192;53.596;10.166;2022-11-20T11:05:22;2.10;99.90
16172;DHT22;8192;53.596;10.166;2022-11-20T11:07:53;2.00;99.90
16172;DHT22;8192;53.596;10.166;2022-11-20T11:10:24;2.00;99.90
16172;DHT22;8192;53.596;10.166;2022-11-20T11:12:52;1.90;99.90
16172;DHT22;8192;53.596;10.166;2022-11-20T11:15:28;2.00;99.90
16172;DHT22;8192;53.596;10.166;2022-11-20T11:17:56;2.00;99.90
16172;DHT22;8192;53.596;10.166;2022-11-20T11:20:24;2.00;99.90
16172;DHT22;8192;53.596;10.166;2022-11-20T11:22:54;2.00;99.90
16172;DHT22;8192;53.596;10.166;2022-11-20T11:25:24;2.00;99.90
16172;DHT22;8192;53.596;10.166;2022-11-20T11:27:55;2.20;99.90
16172;DHT22;8192;53.596;10.166;2022-11-20T11:30:25;2.40;99.90
16172;DHT22;8192;53.596;10.166;2022-11-20T11:33:03;2.60;99.90
16172;DHT22;8192;53.596;10.166;2022-11-20T11:35:33;2.60;99.90
16172;DHT22;8192;53.596;10.166;2022-11-20T11:38:05;2.40;99.90
16172;DHT22;8192;53.596;10.166;2022-11-20T11:40:34;2.20;99.90
16172;DHT22;8192;53.596;10.166;2022-11-20T11:43:06;2.10;99.90
16172;DHT22;8192;53.596;10.166;2022-11-20T11:45:55;2.10;99.90
16172;DHT22;8192;53.596;10.166;2022-11-20T11:48:22;2.40;99.90
16172;DHT22;8192;53.596;10.166;2022-11-20T11:50:49;2.50;99.90
16172;DHT22;8192;53.596;10.166;2022-11-20T11:53:18;2.60;99.90
16172;DHT22;8192;53.596;10.166;2022-11-20T11:55:50;2.40;99.90
16172;DHT22;8192;53.596;10.166;2022-11-20T11:58:33;2.40;99.90
16172;DHT22;8192;53.596;10.166;2022-11-20T12:01:06;2.50;99.90
16172;DHT22;8192;53.596;10.166;2022-11-20T12:03:36;2.40;99.90
16172;DHT22;8192;53.596;10.166;2022-11-20T12:06:08;2.30;99.90
16172;DHT22;8192;53.596;10.166;2022-11-20T12:08:42;2.30;99.90
16172;DHT22;8192;53.596;10.166;2022-11-20T12:11:21;2.30;99.90
16172;DHT22;8192;53.596;10.166;2022-11-20T12:13:55;2.30;99.90
16172;DHT22;8192;53.596;10.166;2022-11-20T12:16:27;2.30;99.90
16172;DHT22;8192;53.596;10.166;2022-11-20T12:18:54;2.40;99.90
16172;DHT22;8192;53.596;10.166;2022-11-20T12:21:31;2.40;99.90
16172;DHT22;8192;53.596;10.166;2022-11-20T12:24:11;2.50;99.90
16172;DHT22;8192;53.596;10.166;2022-11-20T12:26:55;2.50;99.90
16172;DHT22;8192;53.596;10.166;2022-11-20T12:29:36;2.50;99.90
16172;DHT22;8192;53.596;10.166;2022-11-20T12:32:31;2.40;99.90
16172;DHT22;8192;53.596;10.166;2022-11-20T12:35:05;2.30;99.90
16172;DHT22;8192;53.596;10.166;2022-11-20T12:37:43;2.30;99.90
16172;DHT22;8192;53.596;10.166;2022-11-20T12:40:24;2.30;99.90
16172;DHT22;8192;53.596;10.166;2022-11-20T12:43:01;2.40;99.90
16172;DHT22;8192;53.596;10.166;2022-11-20T12:46:09;2.40;99.90
16172;DHT22;8192;53.596;10.166;2022-11-20T12:49:02;2.40;99.90
16172;DHT22;8192;53.596;10.166;2022-11-20T12:57:21;2.40;99.90
16172;DHT22;8192;53.596;10.166;2022-11-20T13:00:10;2.50;99.90
16172;DHT22;8192;53.596;10.166;2022-11-20T13:02:56;2.50;99.90
16172;DHT22;8192;53.596;10.166;2022-11-20T13:05:32;2.40;99.90
16172;DHT22;8192;53.596;10.166;2022-11-20T13:08:02;2.40;99.90
16172;DHT22;8192;53.596;10.166;2022-11-20T13:10:34;2.50;99.90
16172;DHT22;8192;53.596;10.166;2022-11-20T13:13:12;2.70;99.90
16172;DHT22;8192;53.596;10.166;2022-11-20T13:15:49;3.00;99.90
16172;DHT22;8192;53.596;10.166;2022-11-20T13:18:18;3.30;99.90
16172;DHT22;8192;53.596;10.166;2022-11-20T13:20:46;3.30;99.90
16172;DHT22;8192;53.596;10.166;2022-11-20T13:23:23;3.20;99.90
16172;DHT22;8192;53.596;10.166;2022-11-20T13:25:52;3.30;99.90
16172;DHT22;8192;53.596;10.166;2022-11-20T13:28:30;3.10;99.90
16172;DHT22;8192;53.596;10.166;2022-11-20T13:30:58;3.10;99.90
16172;DHT22;8192;53.596;10.166;2022-11-20T13:33:30;3.00;99.90
16172;DHT22;8192;53.596;10.166;2022-11-20T13:36:00;3.00;99.90
16172;DHT22;8192;53.596;10.166;2022-11-20T13:38:28;3.10;99.90
16172;DHT22;8192;53.596;10.166;2022-11-20T13:40:57;3.00;99.90
16172;DHT22;8192;53.596;10.166;2022-11-20T13:43:35;3.00;99.90
16172;DHT22;8192;53.596;10.166;2022-11-20T13:46:05;3.00;99.90
16172;DHT22;8192;53.596;10.166;2022-11-20T13:48:38;3.00;99.90
16172;DHT22;8192;53.596;10.166;2022-11-20T13:51:27;2.90;99.90
16172;DHT22;8192;53.596;10.166;2022-11-20T13:54:14;2.80;99.90
16172;DHT22;8192;53.596;10.166;2022-11-20T13:56:59;2.80;99.90
16172;DHT22;8192;53.596;10.166;2022-11-20T13:59:43;2.70;99.90
16172;DHT22;8192;53.596;10.166;2022-11-20T14:02:16;2.70;99.90
16172;DHT22;8192;53.596;10.166;2022-11-20T14:04:48;2.70;99.90
16172;DHT22;8192;53.596;10.166;2022-11-20T14:07:15;2.70;99.90
16172;DHT22;8192;53.596;10.166;2022-11-20T14:09:50;2.70;99.90
16172;DHT22;8192;53.596;10.166;2022-11-20T14:12:20;2.60;99.90
16172;DHT22;8192;53.596;10.166;2022-11-20T14:14:49;2.60;99.90
16172;DHT22;8192;53.596;10.166;2022-11-20T14:17:19;2.60;99.90
16172;DHT22;8192;53.596;10.166;2022-11-20T14:19:50;2.60;99.90
16172;DHT22;8192;53.596;10.166;2022-11-20T14:22:19;2.50;99.90
16172;DHT22;8192;53.596;10.166;2022-11-20T14:24:48;2.50;99.90
16172;DHT22;8192;53.596;10.166;2022-11-20T14:27:17;2.50;99.90
16172;DHT22;8192;53.596;10.166;2022-11-20T14:29:46;2.40;99.90
16172;DHT22;8192;53.596;10.166;2022-11-20T14:32:16;2.40;99.90
16172;DHT22;8192;53.596;10.166;2022-11-20T14:34:45;2.30;99.90
16172;DHT22;8192;53.596;10.166;2022-11-20T14:37:24;2.10;99.90
16172;DHT22;8192;53.596;10.166;2022-11-20T14:39:53;2.00;99.90
16172;DHT22;8192;53.596;10.166;2022-11-20T14:42:22;1.90;99.90
16172;DHT22;8192;53.596;10.166;2022-11-20T14:44:50;1.90;99.90
16172;DHT22;8192;53.596;10.166;2022-11-20T14:47:22;1.90;99.90
16172;DHT22;8192;53.596;10.166;2022-11-20T14:49:52;1.90;99.90
16172;DHT22;8192;53.596;10.166;2022-11-20T14:52:24;1.90;99.90
16172;DHT22;8192;53.596;10.166;2022-11-20T14:55:02;1.90;99.90
16172;DHT22;8192;53.596;10.166;2022-11-20T14:57:31;1.90;99.90
16172;DHT22;8192;53.596;10.166;2022-11-20T15:00:07;1.80;99.90
16172;DHT22;8192;53.596;10.166;2022-11-20T15:02:38;1.80;99.90
16172;DHT22;8192;53.596;10.166;2022-11-20T15:05:13;1.70;99.90
16172;DHT22;8192;53.596;10.166;2022-11-20T15:07:46;1.70;99.90
16172;DHT22;8192;53.596;10.166;2022-11-20T15:10:22;1.70;99.90
16172;DHT22;8192;53.596;10.166;2022-11-20T15:12:51;1.70;99.90
16172;DHT22;8192;53.596;10.166;2022-11-20T15:15:21;1.80;99.90
16172;DHT22;8192;53.596;10.166;2022-11-20T15:17:50;1.80;99.90
16172;DHT22;8192;53.596;10.166;2022-11-20T15:20:17;1.80;99.90
16172;DHT22;8192;53.596;10.166;2022-11-20T15:22:46;1.90;99.90
16172;DHT22;8192;53.596;10.166;2022-11-20T15:25:14;1.90;99.90
16172;DHT22;8192;53.596;10.166;2022-11-20T15:27:44;1.90;99.90
16172;DHT22;8192;53.596;10.166;2022-11-20T15:30:17;1.90;99.90
16172;DHT22;8192;53.596;10.166;2022-11-20T15:32:45;1.90;99.90
16172;DHT22;8192;53.596;10.166;2022-11-20T15:35:13;1.90;99.90
16172;DHT22;8192;53.596;10.166;2022-11-20T15:37:41;1.90;99.90
16172;DHT22;8192;53.596;10.166;2022-11-20T15:40:46;1.90;99.90
16172;DHT22;8192;53.596;10.166;2022-11-20T15:43:13;1.90;99.90
16172;DHT22;8192;53.596;10.166;2022-11-20T15:45:42;1.90;99.90
16172;DHT22;8192;53.596;10.166;2022-11-20T15:48:20;1.90;99.90
16172;DHT22;8192;53.596;10.166;2022-11-20T15:50:52;1.90;99.90
16172;DHT22;8192;53.596;10.166;2022-11-20T15:53:20;1.90;99.90
16172;DHT22;8192;53.596;10.166;2022-11-20T15:55:48;1.90;99.90
16172;DHT22;8192;53.596;10.166;2022-11-20T15:58:16;1.90;99.90
16172;DHT22;8192;53.596;10.166;2022-11-20T16:00:43;1.90;99.90
16172;DHT22;8192;53.596;10.166;2022-11-20T16:03:11;1.80;99.90
16172;DHT22;8192;53.596;10.166;2022-11-20T16:05:38;1.90;99.90
16172;DHT22;8192;53.596;10.166;2022-11-20T16:08:05;1.90;99.90
16172;DHT22;8192;53.596;10.166;2022-11-20T16:10:34;1.90;99.90
16172;DHT22;8192;53.596;10.166;2022-11-20T16:13:04;1.90;99.90
16172;DHT22;8192;53.596;10.166;2022-11-20T16:15:51;1.90;99.90
16172;DHT22;8192;53.596;10.166;2022-11-20T16:18:20;1.90;99.90
16172;DHT22;8192;53.596;10.166;2022-11-20T16:20:50;1.80;99.90
16172;DHT22;8192;53.596;10.166;2022-11-20T16:23:17;1.80;99.90
16172;DHT22;8192;53.596;10.166;2022-11-20T16:25:45;1.80;99.90
16172;DHT22;8192;53.596;10.166;2022-11-20T16:28:14;1.80;99.90
16172;DHT22;8192;53.596;10.166;2022-11-20T16:30:41;1.80;99.90
16172;DHT22;8192;53.596;10.166;2022-11-20T16:33:10;1.80;99.90
16172;DHT22;8192;53.596;10.166;2022-11-20T16:35:38;1.70;99.90
16172;DHT22;8192;53.596;10.166;2022-11-20T16:38:05;1.70;99.90
16172;DHT22;8192;53.596;10.166;2022-11-20T16:40:32;1.60;99.90
16172;DHT22;8192;53.596;10.166;2022-11-20T16:43:07;1.50;99.90
16172;DHT22;8192;53.596;10.166;2022-11-20T16:45:40;1.50;99.90
16172;DHT22;8192;53.596;10.166;2022-11-20T16:48:11;1.50;99.90
16172;DHT22;8192;53.596;10.166;2022-11-20T16:50:45;1.50;99.90
16172;DHT22;8192;53.596;10.166;2022-11-20T16:53:13;1.50;99.90
16172;DHT22;8192;53.596;10.166;2022-11-20T16:55:41;1.40;99.90
16172;DHT22;8192;53.596;10.166;2022-11-20T16:58:10;1.40;99.90
16172;DHT22;8192;53.596;10.166;2022-11-20T17:00:40;1.40;99.90
16172;DHT22;8192;53.596;10.166;2022-11-20T17:03:07;1.40;99.90
16172;DHT22;8192;53.596;10.166;2022-11-20T17:05:34;1.40;99.90
16172;DHT22;8192;53.596;10.166;2022-11-20T17:08:02;1.40;99.90
16172;DHT22;8192;53.596;10.166;2022-11-20T17:10:28;1.40;99.90
16172;DHT22;8192;53.596;10.166;2022-11-20T17:12:57;1.30;99.90
16172;DHT22;8192;53.596;10.166;2022-11-20T17:15:23;1.30;99.90
16172;DHT22;8192;53.596;10.166;2022-11-20T17:17:52;1.30;99.90
16172;DHT22;8192;53.596;10.166;2022-11-20T17:20:19;1.30;99.90
16172;DHT22;8192;53.596;10.166;2022-11-20T17:22:46;1.30;99.90
16172;DHT22;8192;53.596;10.166;2022-11-20T17:25:13;1.30;99.90
16172;DHT22;8192;53.596;10.166;2022-11-20T17:27:40;1.30;99.90
16172;DHT22;8192;53.596;10.166;2022-11-20T17:30:08;1.30;99.90
16172;DHT22;8192;53.596;10.166;2022-11-20T17:32:35;1.20;99.90
16172;DHT22;8192;53.596;10.166;2022-11-20T17:35:04;1.20;99.90
16172;DHT22;8192;53.596;10.166;2022-11-20T17:37:31;1.20;99.90
16172;DHT22;8192;53.596;10.166;2022-11-20T17:39:58;1.20;99.90
16172;DHT22;8192;53.596;10.166;2022-11-20T17:42:25;1.10;99.90
16172;DHT22;8192;53.596;10.166;2022-11-20T17:44:54;1.00;99.90
16172;DHT22;8192;53.596;10.166;2022-11-20T17:47:23;1.00;99.90
16172;DHT22;8192;53.596;10.166;2022-11-20T17:49:50;0.90;99.90
16172;DHT22;8192;53.596;10.166;2022-11-20T17:52:21;0.80;99.90
16172;DHT22;8192;53.596;10.166;2022-11-20T17:54:48;0.80;99.90
16172;DHT22;8192;53.596;10.166;2022-11-20T17:57:19;0.60;99.90
16172;DHT22;8192;53.596;10.166;2022-11-20T18:00:05;0.50;99.90
16172;DHT22;8192;53.596;10.166;2022-11-20T18:02:32;0.30;99.90
16172;DHT22;8192;53.596;10.166;2022-11-20T18:04:59;0.20;99.90
16172;DHT22;8192;53.596;10.166;2022-11-20T18:07:27;0.10;99.90
16172;DHT22;8192;53.596;10.166;2022-11-20T18:09:54;0.00;99.90
16172;DHT22;8192;53.596;10.166;2022-11-20T18:12:21;-0.10;99.90
16172;DHT22;8192;53.596;10.166;2022-11-20T18:14:51;-0.30;99.90
16172;DHT22;8192;53.596;10.166;2022-11-20T18:17:18;-0.50;99.90
16172;DHT22;8192;53.596;10.166;2022-11-20T18:19:47;-0.60;99.90
16172;DHT22;8192;53.596;10.166;2022-11-20T18:22:16;-0.60;99.90
16172;DHT22;8192;53.596;10.166;2022-11-20T18:24:45;-0.50;99.90
16172;DHT22;8192;53.596;10.166;2022-11-20T18:27:14;-0.40;99.90
16172;DHT22;8192;53.596;10.166;2022-11-20T18:29:42;-0.40;99.90
16172;DHT22;8192;53.596;10.166;2022-11-20T18:32:09;-0.50;99.90
16172;DHT22;8192;53.596;10.166;2022-11-20T18:34:36;-0.60;99.90
16172;DHT22;8192;53.596;10.166;2022-11-20T18:37:03;-0.70;99.90
16172;DHT22;8192;53.596;10.166;2022-11-20T18:39:31;-0.80;99.90
16172;DHT22;8192;53.596;10.166;2022-11-20T18:41:59;-0.70;99.90
16172;DHT22;8192;53.596;10.166;2022-11-20T18:44:55;-0.70;99.90
16172;DHT22;8192;53.596;10.166;2022-11-20T18:47:26;-0.70;99.90
16172;DHT22;8192;53.596;10.166;2022-11-20T18:49:56;-0.80;99.90
16172;DHT22;8192;53.596;10.166;2022-11-20T18:52:25;-0.60;99.90
16172;DHT22;8192;53.596;10.166;2022-11-20T18:54:52;-0.70;99.90
16172;DHT22;8192;53.596;10.166;2022-11-20T18:57:24;-0.80;99.90
16172;DHT22;8192;53.596;10.166;2022-11-20T18:59:52;-0.70;99.90